ROMMA est une association bénévole à but non lucratif. Votre soutien est indispensable : ADHERER à ROMMA ou FAIRE un DON

Engins - (38, Isère)

Vercors (906 m)   Longitude: 05° 37' E   Latitude: 45° 11' N Station partenaire n°139
 

Détail journalier du     <<     >>

Température Precipitation Humidité Vent Dir Rafale Dir. rafale Ensol.
Heure (°C) (mm) (%) (km/h) (km/h) (min)
01:00 9.73.6946SSO21SSO0
02:00 9.33.6955SSO19SSE0
03:00 9.42.8925SO23SSE0
04:00 10.10.4899SE34SSE0
05:00 10.10898O26OSO0
06:00 9.00916ONO18NO0
07:00 8.10943ONO13NNO0
08:00 8.10954ONO10O0
09:00 8.30962ONO5ONO0
10:00 10.70942SE6E30
11:00 12.70902N10SSE50
12:00 11.90923ENE8NNE25
13:00 12.40922ENE10ESE0
14:00 12.80902ENE8NE0
15:00 12.30902NNE11ENE0
16:00 13.20882N8N20
17:00 12.80892NNE11NNE15
18:00 11.80913S8NNO20
19:00 10.60942ONO5S15
20:00 9.90943ONO8OSO0
21:00 9.60943OSO10O0
22:00 9.20924O11OSO0
23:00 8.50914OSO13SO0
minuit 8.60915SSO18SSE0

Graphique du 24-10-2019

 

Serveur OMMA